sensor_id;sensor_type;location;lat;lon;timestamp;P1;durP1;ratioP1;P2;durP2;ratioP2
8755;SDS011;4414;42.670;23.228;2024-03-23T00:54:12;10.40;;;5.00;;
8755;SDS011;4414;42.670;23.228;2024-03-23T00:56:38;7.15;;;4.30;;
8755;SDS011;4414;42.670;23.228;2024-03-23T00:59:03;9.05;;;4.57;;
8755;SDS011;4414;42.670;23.228;2024-03-23T01:01:29;9.60;;;4.68;;
8755;SDS011;4414;42.670;23.228;2024-03-23T01:03:55;9.98;;;4.95;;
8755;SDS011;4414;42.670;23.228;2024-03-23T01:06:21;7.65;;;3.70;;
8755;SDS011;4414;42.670;23.228;2024-03-23T01:08:47;7.20;;;4.15;;
8755;SDS011;4414;42.670;23.228;2024-03-23T01:11:12;7.07;;;3.97;;
8755;SDS011;4414;42.670;23.228;2024-03-23T01:13:40;7.05;;;3.47;;
8755;SDS011;4414;42.670;23.228;2024-03-23T01:16:06;7.45;;;4.22;;
8755;SDS011;4414;42.670;23.228;2024-03-23T01:18:32;5.90;;;4.15;;
8755;SDS011;4414;42.670;23.228;2024-03-23T01:20:58;4.60;;;2.60;;
8755;SDS011;4414;42.670;23.228;2024-03-23T01:23:23;5.53;;;2.88;;
8755;SDS011;4414;42.670;23.228;2024-03-23T01:25:55;4.88;;;3.10;;
8755;SDS011;4414;42.670;23.228;2024-03-23T01:28:21;5.72;;;3.50;;
8755;SDS011;4414;42.670;23.228;2024-03-23T01:30:47;8.02;;;3.75;;
8755;SDS011;4414;42.670;23.228;2024-03-23T01:33:13;7.70;;;4.40;;
8755;SDS011;4414;42.670;23.228;2024-03-23T01:35:39;11.13;;;5.57;;
8755;SDS011;4414;42.670;23.228;2024-03-23T01:38:04;9.02;;;4.68;;
8755;SDS011;4414;42.670;23.228;2024-03-23T01:40:31;11.82;;;4.72;;
8755;SDS011;4414;42.670;23.228;2024-03-23T01:42:57;9.27;;;3.95;;
8755;SDS011;4414;42.670;23.228;2024-03-23T01:45:27;10.05;;;4.43;;
8755;SDS011;4414;42.670;23.228;2024-03-23T01:47:53;5.15;;;3.22;;
8755;SDS011;4414;42.670;23.228;2024-03-23T01:50:19;7.45;;;3.92;;
8755;SDS011;4414;42.670;23.228;2024-03-23T01:52:49;7.93;;;4.20;;
8755;SDS011;4414;42.670;23.228;2024-03-23T01:55:15;7.85;;;3.95;;
8755;SDS011;4414;42.670;23.228;2024-03-23T01:57:43;7.72;;;3.92;;
8755;SDS011;4414;42.670;23.228;2024-03-23T02:00:09;10.65;;;4.22;;
8755;SDS011;4414;42.670;23.228;2024-03-23T02:02:40;7.32;;;3.47;;
8755;SDS011;4414;42.670;23.228;2024-03-23T02:05:10;6.45;;;4.22;;
8755;SDS011;4414;42.670;23.228;2024-03-23T02:07:37;6.70;;;3.47;;
8755;SDS011;4414;42.670;23.228;2024-03-23T02:10:10;3.95;;;2.53;;
8755;SDS011;4414;42.670;23.228;2024-03-23T02:12:40;6.00;;;3.38;;
8755;SDS011;4414;42.670;23.228;2024-03-23T02:15:06;6.53;;;3.72;;
8755;SDS011;4414;42.670;23.228;2024-03-23T02:17:33;7.45;;;3.55;;
8755;SDS011;4414;42.670;23.228;2024-03-23T02:19:59;7.70;;;4.07;;
8755;SDS011;4414;42.670;23.228;2024-03-23T02:22:25;7.15;;;3.78;;
8755;SDS011;4414;42.670;23.228;2024-03-23T02:25:00;8.63;;;4.05;;
8755;SDS011;4414;42.670;23.228;2024-03-23T02:27:25;8.48;;;3.58;;
8755;SDS011;4414;42.670;23.228;2024-03-23T02:29:51;8.07;;;4.07;;
8755;SDS011;4414;42.670;23.228;2024-03-23T02:32:17;7.20;;;4.45;;
8755;SDS011;4414;42.670;23.228;2024-03-23T02:34:42;6.07;;;3.13;;
8755;SDS011;4414;42.670;23.228;2024-03-23T02:37:11;9.07;;;3.83;;
8755;SDS011;4414;42.670;23.228;2024-03-23T02:39:37;9.23;;;4.38;;
8755;SDS011;4414;42.670;23.228;2024-03-23T02:42:03;9.20;;;4.00;;
8755;SDS011;4414;42.670;23.228;2024-03-23T02:44:28;10.73;;;4.72;;
8755;SDS011;4414;42.670;23.228;2024-03-23T02:46:54;6.40;;;3.55;;
8755;SDS011;4414;42.670;23.228;2024-03-23T02:49:20;6.38;;;3.40;;
8755;SDS011;4414;42.670;23.228;2024-03-23T02:51:46;8.38;;;4.82;;
8755;SDS011;4414;42.670;23.228;2024-03-23T02:54:13;9.02;;;4.40;;
8755;SDS011;4414;42.670;23.228;2024-03-23T02:56:40;9.30;;;4.70;;
8755;SDS011;4414;42.670;23.228;2024-03-23T02:59:05;6.82;;;4.15;;
8755;SDS011;4414;42.670;23.228;2024-03-23T03:01:31;10.80;;;4.97;;
8755;SDS011;4414;42.670;23.228;2024-03-23T03:03:56;8.30;;;4.53;;
8755;SDS011;4414;42.670;23.228;2024-03-23T03:06:25;7.63;;;4.68;;
8755;SDS011;4414;42.670;23.228;2024-03-23T03:08:51;9.88;;;4.35;;
8755;SDS011;4414;42.670;23.228;2024-03-23T03:11:17;11.07;;;4.70;;
8755;SDS011;4414;42.670;23.228;2024-03-23T03:13:42;10.75;;;4.95;;
8755;SDS011;4414;42.670;23.228;2024-03-23T03:16:08;6.70;;;4.20;;
8755;SDS011;4414;42.670;23.228;2024-03-23T03:18:37;5.88;;;3.75;;
8755;SDS011;4414;42.670;23.228;2024-03-23T03:21:04;9.73;;;4.55;;
8755;SDS011;4414;42.670;23.228;2024-03-23T03:23:33;7.63;;;4.43;;
8755;SDS011;4414;42.670;23.228;2024-03-23T03:26:01;8.57;;;3.65;;
8755;SDS011;4414;42.670;23.228;2024-03-23T03:28:27;8.13;;;4.65;;
8755;SDS011;4414;42.670;23.228;2024-03-23T03:30:55;8.68;;;3.97;;
8755;SDS011;4414;42.670;23.228;2024-03-23T03:33:22;10.27;;;4.70;;
8755;SDS011;4414;42.670;23.228;2024-03-23T03:35:47;8.23;;;4.00;;
8755;SDS011;4414;42.670;23.228;2024-03-23T03:38:16;8.30;;;4.22;;
8755;SDS011;4414;42.670;23.228;2024-03-23T03:40:41;9.63;;;4.15;;
8755;SDS011;4414;42.670;23.228;2024-03-23T03:43:07;5.95;;;4.22;;
8755;SDS011;4414;42.670;23.228;2024-03-23T03:45:33;7.60;;;4.10;;
8755;SDS011;4414;42.670;23.228;2024-03-23T03:47:58;10.75;;;4.35;;
8755;SDS011;4414;42.670;23.228;2024-03-23T03:50:24;11.65;;;5.10;;
8755;SDS011;4414;42.670;23.228;2024-03-23T03:52:50;8.35;;;4.25;;
8755;SDS011;4414;42.670;23.228;2024-03-23T03:55:16;10.60;;;4.93;;
8755;SDS011;4414;42.670;23.228;2024-03-23T03:57:42;14.02;;;5.10;;
8755;SDS011;4414;42.670;23.228;2024-03-23T04:00:07;9.85;;;4.43;;
8755;SDS011;4414;42.670;23.228;2024-03-23T04:02:39;11.02;;;4.80;;
8755;SDS011;4414;42.670;23.228;2024-03-23T04:05:05;8.63;;;4.90;;
8755;SDS011;4414;42.670;23.228;2024-03-23T04:07:31;8.77;;;4.35;;
8755;SDS011;4414;42.670;23.228;2024-03-23T04:09:57;7.25;;;4.07;;
8755;SDS011;4414;42.670;23.228;2024-03-23T04:12:23;10.20;;;4.47;;
8755;SDS011;4414;42.670;23.228;2024-03-23T04:14:49;10.00;;;5.32;;
8755;SDS011;4414;42.670;23.228;2024-03-23T04:17:15;9.70;;;4.60;;
8755;SDS011;4414;42.670;23.228;2024-03-23T04:19:41;9.05;;;4.55;;
8755;SDS011;4414;42.670;23.228;2024-03-23T04:22:07;9.20;;;4.75;;
8755;SDS011;4414;42.670;23.228;2024-03-23T04:24:33;6.65;;;4.35;;
8755;SDS011;4414;42.670;23.228;2024-03-23T04:26:59;7.03;;;4.50;;
8755;SDS011;4414;42.670;23.228;2024-03-23T04:29:24;10.48;;;5.07;;
8755;SDS011;4414;42.670;23.228;2024-03-23T04:31:52;10.18;;;4.93;;
8755;SDS011;4414;42.670;23.228;2024-03-23T04:34:17;9.90;;;4.35;;
8755;SDS011;4414;42.670;23.228;2024-03-23T04:36:43;7.70;;;4.00;;
8755;SDS011;4414;42.670;23.228;2024-03-23T04:39:09;11.65;;;4.85;;
8755;SDS011;4414;42.670;23.228;2024-03-23T04:41:35;10.65;;;4.82;;
8755;SDS011;4414;42.670;23.228;2024-03-23T04:44:01;15.05;;;6.00;;
8755;SDS011;4414;42.670;23.228;2024-03-23T04:46:27;10.73;;;4.70;;
8755;SDS011;4414;42.670;23.228;2024-03-23T04:48:52;11.27;;;4.80;;
8755;SDS011;4414;42.670;23.228;2024-03-23T04:51:21;13.90;;;5.22;;
8755;SDS011;4414;42.670;23.228;2024-03-23T04:53:48;10.68;;;4.97;;
8755;SDS011;4414;42.670;23.228;2024-03-23T04:56:15;5.30;;;4.10;;
8755;SDS011;4414;42.670;23.228;2024-03-23T04:58:42;8.48;;;4.28;;
8755;SDS011;4414;42.670;23.228;2024-03-23T05:01:08;8.55;;;5.50;;
8755;SDS011;4414;42.670;23.228;2024-03-23T05:03:34;13.25;;;6.03;;
8755;SDS011;4414;42.670;23.228;2024-03-23T05:05:59;9.43;;;5.15;;
8755;SDS011;4414;42.670;23.228;2024-03-23T05:08:25;10.73;;;5.40;;
8755;SDS011;4414;42.670;23.228;2024-03-23T05:10:51;7.03;;;4.70;;
8755;SDS011;4414;42.670;23.228;2024-03-23T05:13:16;9.38;;;4.85;;
8755;SDS011;4414;42.670;23.228;2024-03-23T05:15:43;11.23;;;5.45;;
8755;SDS011;4414;42.670;23.228;2024-03-23T05:18:08;10.57;;;5.28;;
8755;SDS011;4414;42.670;23.228;2024-03-23T05:20:35;11.30;;;6.57;;
8755;SDS011;4414;42.670;23.228;2024-03-23T05:23:04;12.50;;;5.93;;
8755;SDS011;4414;42.670;23.228;2024-03-23T05:25:32;18.30;;;6.75;;
8755;SDS011;4414;42.670;23.228;2024-03-23T05:27:59;13.73;;;5.80;;
8755;SDS011;4414;42.670;23.228;2024-03-23T05:30:24;9.63;;;5.72;;
8755;SDS011;4414;42.670;23.228;2024-03-23T05:32:52;10.38;;;5.57;;
8755;SDS011;4414;42.670;23.228;2024-03-23T05:35:18;10.60;;;5.47;;
8755;SDS011;4414;42.670;23.228;2024-03-23T05:37:43;13.80;;;6.50;;
8755;SDS011;4414;42.670;23.228;2024-03-23T05:40:12;12.18;;;6.10;;
8755;SDS011;4414;42.670;23.228;2024-03-23T05:42:40;11.10;;;6.40;;
8755;SDS011;4414;42.670;23.228;2024-03-23T05:45:06;10.90;;;6.45;;
8755;SDS011;4414;42.670;23.228;2024-03-23T05:47:35;9.15;;;5.25;;
8755;SDS011;4414;42.670;23.228;2024-03-23T05:50:01;12.18;;;5.43;;
8755;SDS011;4414;42.670;23.228;2024-03-23T05:52:27;12.48;;;6.13;;
8755;SDS011;4414;42.670;23.228;2024-03-23T05:54:53;12.23;;;5.25;;
8755;SDS011;4414;42.670;23.228;2024-03-23T05:57:19;14.27;;;6.75;;
8755;SDS011;4414;42.670;23.228;2024-03-23T05:59:44;12.63;;;6.28;;
8755;SDS011;4414;42.670;23.228;2024-03-23T06:02:10;15.13;;;6.88;;
8755;SDS011;4414;42.670;23.228;2024-03-23T06:04:36;11.48;;;5.75;;
8755;SDS011;4414;42.670;23.228;2024-03-23T06:07:02;14.50;;;7.13;;
8755;SDS011;4414;42.670;23.228;2024-03-23T06:09:28;11.40;;;6.63;;
8755;SDS011;4414;42.670;23.228;2024-03-23T06:11:56;10.95;;;5.88;;
8755;SDS011;4414;42.670;23.228;2024-03-23T06:14:22;10.60;;;6.05;;
8755;SDS011;4414;42.670;23.228;2024-03-23T06:16:47;8.93;;;5.97;;
8755;SDS011;4414;42.670;23.228;2024-03-23T06:19:14;15.48;;;5.93;;
8755;SDS011;4414;42.670;23.228;2024-03-23T06:21:43;10.65;;;6.00;;
8755;SDS011;4414;42.670;23.228;2024-03-23T06:24:09;8.82;;;6.05;;
8755;SDS011;4414;42.670;23.228;2024-03-23T06:26:36;13.55;;;6.53;;
8755;SDS011;4414;42.670;23.228;2024-03-23T06:29:01;11.43;;;6.13;;
8755;SDS011;4414;42.670;23.228;2024-03-23T06:31:27;14.38;;;6.95;;
8755;SDS011;4414;42.670;23.228;2024-03-23T06:33:54;12.85;;;6.22;;
8755;SDS011;4414;42.670;23.228;2024-03-23T06:36:20;11.10;;;6.50;;
8755;SDS011;4414;42.670;23.228;2024-03-23T06:38:46;11.57;;;6.68;;
8755;SDS011;4414;42.670;23.228;2024-03-23T06:41:11;11.50;;;5.88;;
8755;SDS011;4414;42.670;23.228;2024-03-23T06:43:37;9.35;;;5.90;;
8755;SDS011;4414;42.670;23.228;2024-03-23T06:46:03;14.25;;;6.63;;
8755;SDS011;4414;42.670;23.228;2024-03-23T06:48:31;13.90;;;6.45;;
8755;SDS011;4414;42.670;23.228;2024-03-23T06:50:57;11.57;;;6.82;;
8755;SDS011;4414;42.670;23.228;2024-03-23T06:53:23;15.48;;;6.32;;
8755;SDS011;4414;42.670;23.228;2024-03-23T06:55:52;10.70;;;6.05;;
8755;SDS011;4414;42.670;23.228;2024-03-23T06:58:19;14.23;;;7.28;;
8755;SDS011;4414;42.670;23.228;2024-03-23T07:00:45;12.85;;;6.93;;
8755;SDS011;4414;42.670;23.228;2024-03-23T07:03:11;13.52;;;8.02;;
8755;SDS011;4414;42.670;23.228;2024-03-23T07:05:37;15.70;;;7.30;;
8755;SDS011;4414;42.670;23.228;2024-03-23T07:08:03;13.52;;;7.25;;
8755;SDS011;4414;42.670;23.228;2024-03-23T07:10:29;12.05;;;6.97;;
8755;SDS011;4414;42.670;23.228;2024-03-23T07:12:54;19.55;;;7.97;;
8755;SDS011;4414;42.670;23.228;2024-03-23T07:15:22;18.50;;;8.73;;
8755;SDS011;4414;42.670;23.228;2024-03-23T07:17:48;15.73;;;7.40;;
8755;SDS011;4414;42.670;23.228;2024-03-23T07:20:13;15.45;;;7.97;;
8755;SDS011;4414;42.670;23.228;2024-03-23T07:22:39;17.48;;;9.32;;
8755;SDS011;4414;42.670;23.228;2024-03-23T07:25:05;14.57;;;7.82;;
8755;SDS011;4414;42.670;23.228;2024-03-23T07:27:31;13.07;;;7.85;;
8755;SDS011;4414;42.670;23.228;2024-03-23T07:29:57;12.43;;;7.97;;
8755;SDS011;4414;42.670;23.228;2024-03-23T07:32:23;16.42;;;8.45;;
8755;SDS011;4414;42.670;23.228;2024-03-23T07:34:48;14.55;;;8.02;;
8755;SDS011;4414;42.670;23.228;2024-03-23T07:37:14;17.50;;;8.77;;
8755;SDS011;4414;42.670;23.228;2024-03-23T07:39:40;12.45;;;6.78;;
8755;SDS011;4414;42.670;23.228;2024-03-23T07:42:06;16.90;;;7.47;;
8755;SDS011;4414;42.670;23.228;2024-03-23T07:44:34;16.13;;;7.50;;
8755;SDS011;4414;42.670;23.228;2024-03-23T07:47:00;12.18;;;7.10;;
8755;SDS011;4414;42.670;23.228;2024-03-23T07:49:26;15.85;;;8.15;;
8755;SDS011;4414;42.670;23.228;2024-03-23T07:51:52;14.38;;;8.38;;
8755;SDS011;4414;42.670;23.228;2024-03-23T07:54:17;16.15;;;8.27;;
8755;SDS011;4414;42.670;23.228;2024-03-23T07:56:43;16.58;;;7.53;;
8755;SDS011;4414;42.670;23.228;2024-03-23T07:59:11;15.18;;;7.32;;
8755;SDS011;4414;42.670;23.228;2024-03-23T08:01:36;18.65;;;8.45;;
8755;SDS011;4414;42.670;23.228;2024-03-23T08:04:08;14.93;;;8.27;;
8755;SDS011;4414;42.670;23.228;2024-03-23T08:06:33;15.23;;;8.43;;
8755;SDS011;4414;42.670;23.228;2024-03-23T08:08:59;19.33;;;9.27;;
8755;SDS011;4414;42.670;23.228;2024-03-23T08:11:28;17.20;;;7.85;;
8755;SDS011;4414;42.670;23.228;2024-03-23T08:13:58;13.73;;;7.32;;
8755;SDS011;4414;42.670;23.228;2024-03-23T08:16:23;15.63;;;8.98;;
8755;SDS011;4414;42.670;23.228;2024-03-23T08:18:52;15.98;;;8.43;;
8755;SDS011;4414;42.670;23.228;2024-03-23T08:21:20;19.42;;;9.13;;
8755;SDS011;4414;42.670;23.228;2024-03-23T08:23:46;13.32;;;8.40;;
8755;SDS011;4414;42.670;23.228;2024-03-23T08:26:12;16.45;;;9.18;;
8755;SDS011;4414;42.670;23.228;2024-03-23T08:28:38;17.98;;;9.05;;
8755;SDS011;4414;42.670;23.228;2024-03-23T08:31:08;16.75;;;8.55;;
8755;SDS011;4414;42.670;23.228;2024-03-23T08:33:34;21.23;;;9.57;;
8755;SDS011;4414;42.670;23.228;2024-03-23T08:36:01;16.70;;;9.52;;
8755;SDS011;4414;42.670;23.228;2024-03-23T08:38:29;17.42;;;8.68;;
8755;SDS011;4414;42.670;23.228;2024-03-23T08:40:58;19.00;;;8.25;;
8755;SDS011;4414;42.670;23.228;2024-03-23T08:43:24;15.48;;;7.90;;
8755;SDS011;4414;42.670;23.228;2024-03-23T08:45:50;17.05;;;9.02;;
8755;SDS011;4414;42.670;23.228;2024-03-23T08:48:15;14.27;;;7.35;;
8755;SDS011;4414;42.670;23.228;2024-03-23T08:50:41;17.48;;;8.02;;
8755;SDS011;4414;42.670;23.228;2024-03-23T08:53:06;11.75;;;6.72;;
8755;SDS011;4414;42.670;23.228;2024-03-23T08:55:32;14.88;;;8.52;;
8755;SDS011;4414;42.670;23.228;2024-03-23T08:57:58;14.73;;;8.13;;
8755;SDS011;4414;42.670;23.228;2024-03-23T09:00:23;17.42;;;8.45;;
8755;SDS011;4414;42.670;23.228;2024-03-23T09:02:49;16.27;;;8.95;;
8755;SDS011;4414;42.670;23.228;2024-03-23T09:05:15;16.65;;;7.57;;
8755;SDS011;4414;42.670;23.228;2024-03-23T09:07:40;15.63;;;7.50;;
8755;SDS011;4414;42.670;23.228;2024-03-23T09:10:06;16.42;;;7.97;;
8755;SDS011;4414;42.670;23.228;2024-03-23T09:12:32;18.83;;;8.98;;
8755;SDS011;4414;42.670;23.228;2024-03-23T09:14:57;16.55;;;8.50;;
8755;SDS011;4414;42.670;23.228;2024-03-23T09:17:24;17.23;;;8.07;;
8755;SDS011;4414;42.670;23.228;2024-03-23T09:19:50;12.45;;;7.28;;
8755;SDS011;4414;42.670;23.228;2024-03-23T09:22:16;15.13;;;7.28;;
8755;SDS011;4414;42.670;23.228;2024-03-23T09:24:41;19.20;;;9.68;;
8755;SDS011;4414;42.670;23.228;2024-03-23T09:27:07;15.20;;;8.85;;
8755;SDS011;4414;42.670;23.228;2024-03-23T09:29:33;15.40;;;7.70;;
8755;SDS011;4414;42.670;23.228;2024-03-23T09:31:58;19.25;;;9.20;;
8755;SDS011;4414;42.670;23.228;2024-03-23T09:34:24;18.30;;;9.10;;
8755;SDS011;4414;42.670;23.228;2024-03-23T09:36:52;13.63;;;8.63;;
8755;SDS011;4414;42.670;23.228;2024-03-23T09:39:18;16.23;;;7.85;;
8755;SDS011;4414;42.670;23.228;2024-03-23T09:41:44;15.05;;;7.72;;
8755;SDS011;4414;42.670;23.228;2024-03-23T09:44:11;12.63;;;6.95;;
8755;SDS011;4414;42.670;23.228;2024-03-23T09:46:36;15.95;;;8.85;;
8755;SDS011;4414;42.670;23.228;2024-03-23T09:49:04;13.27;;;8.63;;
8755;SDS011;4414;42.670;23.228;2024-03-23T09:51:35;10.35;;;6.72;;
8755;SDS011;4414;42.670;23.228;2024-03-23T09:54:01;18.55;;;8.63;;
8755;SDS011;4414;42.670;23.228;2024-03-23T09:56:27;9.80;;;6.65;;
8755;SDS011;4414;42.670;23.228;2024-03-23T09:58:59;25.48;;;8.63;;
8755;SDS011;4414;42.670;23.228;2024-03-23T10:01:26;14.57;;;7.93;;
8755;SDS011;4414;42.670;23.228;2024-03-23T10:03:55;14.23;;;8.50;;
8755;SDS011;4414;42.670;23.228;2024-03-23T10:06:23;16.23;;;8.27;;
8755;SDS011;4414;42.670;23.228;2024-03-23T10:08:52;16.73;;;8.90;;
8755;SDS011;4414;42.670;23.228;2024-03-23T10:11:19;12.45;;;6.95;;
8755;SDS011;4414;42.670;23.228;2024-03-23T10:13:46;12.75;;;7.07;;
8755;SDS011;4414;42.670;23.228;2024-03-23T10:16:21;9.73;;;6.50;;
8755;SDS011;4414;42.670;23.228;2024-03-23T10:18:48;14.85;;;7.30;;
8755;SDS011;4414;42.670;23.228;2024-03-23T10:21:15;13.52;;;6.88;;
8755;SDS011;4414;42.670;23.228;2024-03-23T10:23:41;10.65;;;6.00;;
8755;SDS011;4414;42.670;23.228;2024-03-23T10:26:15;10.80;;;6.45;;
8755;SDS011;4414;42.670;23.228;2024-03-23T10:31:20;12.93;;;5.15;;
8755;SDS011;4414;42.670;23.228;2024-03-23T10:33:46;9.43;;;5.47;;
8755;SDS011;4414;42.670;23.228;2024-03-23T10:36:13;7.35;;;4.55;;
8755;SDS011;4414;42.670;23.228;2024-03-23T10:38:42;7.40;;;4.50;;
8755;SDS011;4414;42.670;23.228;2024-03-23T10:41:09;7.60;;;4.38;;
8755;SDS011;4414;42.670;23.228;2024-03-23T10:43:39;11.88;;;5.55;;
8755;SDS011;4414;42.670;23.228;2024-03-23T10:46:07;8.70;;;4.60;;
8755;SDS011;4414;42.670;23.228;2024-03-23T10:48:34;9.18;;;4.93;;
8755;SDS011;4414;42.670;23.228;2024-03-23T10:51:00;8.20;;;4.07;;
8755;SDS011;4414;42.670;23.228;2024-03-23T10:53:26;8.77;;;4.80;;
8755;SDS011;4414;42.670;23.228;2024-03-23T10:55:52;9.27;;;4.78;;
8755;SDS011;4414;42.670;23.228;2024-03-23T10:58:24;7.00;;;4.00;;
8755;SDS011;4414;42.670;23.228;2024-03-23T11:00:56;9.98;;;4.68;;
8755;SDS011;4414;42.670;23.228;2024-03-23T11:03:33;6.88;;;3.97;;
8755;SDS011;4414;42.670;23.228;2024-03-23T11:06:05;8.27;;;4.38;;
8755;SDS011;4414;42.670;23.228;2024-03-23T11:08:35;8.88;;;4.97;;
8755;SDS011;4414;42.670;23.228;2024-03-23T11:11:35;9.48;;;4.68;;
8755;SDS011;4414;42.670;23.228;2024-03-23T11:13:56;8.00;;;4.60;;
8755;SDS011;4414;42.670;23.228;2024-03-23T11:16:25;4.38;;;2.65;;
8755;SDS011;4414;42.670;23.228;2024-03-23T11:19:33;5.07;;;2.33;;
8755;SDS011;4414;42.670;23.228;2024-03-23T11:22:00;7.82;;;2.53;;
8755;SDS011;4414;42.670;23.228;2024-03-23T11:24:26;5.32;;;2.30;;
8755;SDS011;4414;42.670;23.228;2024-03-23T11:26:52;6.93;;;2.63;;
8755;SDS011;4414;42.670;23.228;2024-03-23T11:29:17;4.78;;;2.03;;
8755;SDS011;4414;42.670;23.228;2024-03-23T11:31:50;5.78;;;1.83;;
8755;SDS011;4414;42.670;23.228;2024-03-23T11:34:21;4.70;;;2.13;;
8755;SDS011;4414;42.670;23.228;2024-03-23T11:36:47;3.70;;;1.63;;
8755;SDS011;4414;42.670;23.228;2024-03-23T11:39:16;2.42;;;1.35;;
8755;SDS011;4414;42.670;23.228;2024-03-23T11:41:55;5.25;;;1.40;;
8755;SDS011;4414;42.670;23.228;2024-03-23T11:44:22;5.28;;;2.22;;
8755;SDS011;4414;42.670;23.228;2024-03-23T11:46:50;3.92;;;1.50;;
8755;SDS011;4414;42.670;23.228;2024-03-23T11:49:27;2.45;;;1.55;;
8755;SDS011;4414;42.670;23.228;2024-03-23T11:51:54;3.97;;;1.38;;
8755;SDS011;4414;42.670;23.228;2024-03-23T11:54:21;6.03;;;1.85;;
8755;SDS011;4414;42.670;23.228;2024-03-23T11:56:54;5.35;;;1.55;;
8755;SDS011;4414;42.670;23.228;2024-03-23T11:59:31;2.70;;;1.55;;
8755;SDS011;4414;42.670;23.228;2024-03-23T12:02:00;3.47;;;1.20;;
8755;SDS011;4414;42.670;23.228;2024-03-23T12:04:32;2.10;;;1.23;;
8755;SDS011;4414;42.670;23.228;2024-03-23T12:09:44;1.67;;;1.00;;
8755;SDS011;4414;42.670;23.228;2024-03-23T12:12:13;1.58;;;0.80;;
8755;SDS011;4414;42.670;23.228;2024-03-23T12:14:43;1.73;;;0.60;;
8755;SDS011;4414;42.670;23.228;2024-03-23T12:19:39;10.60;;;3.25;;
8755;SDS011;4414;42.670;23.228;2024-03-23T12:22:06;10.30;;;3.50;;
8755;SDS011;4414;42.670;23.228;2024-03-23T12:24:32;2.30;;;0.80;;
8755;SDS011;4414;42.670;23.228;2024-03-23T12:27:02;2.00;;;0.80;;
8755;SDS011;4414;42.670;23.228;2024-03-23T12:29:31;1.35;;;0.70;;
8755;SDS011;4414;42.670;23.228;2024-03-23T12:31:59;3.80;;;0.98;;
8755;SDS011;4414;42.670;23.228;2024-03-23T12:34:25;8.35;;;1.25;;
8755;SDS011;4414;42.670;23.228;2024-03-23T12:36:51;2.28;;;1.05;;
8755;SDS011;4414;42.670;23.228;2024-03-23T12:39:16;3.63;;;1.25;;
8755;SDS011;4414;42.670;23.228;2024-03-23T12:41:43;1.48;;;0.82;;
8755;SDS011;4414;42.670;23.228;2024-03-23T12:44:08;1.88;;;1.00;;
8755;SDS011;4414;42.670;23.228;2024-03-23T12:46:36;2.20;;;1.10;;
8755;SDS011;4414;42.670;23.228;2024-03-23T12:49:03;1.38;;;0.88;;
8755;SDS011;4414;42.670;23.228;2024-03-23T12:51:28;2.22;;;1.30;;
8755;SDS011;4414;42.670;23.228;2024-03-23T12:53:54;3.80;;;1.08;;
8755;SDS011;4414;42.670;23.228;2024-03-23T12:56:20;2.30;;;0.70;;
8755;SDS011;4414;42.670;23.228;2024-03-23T12:58:45;2.28;;;0.88;;
8755;SDS011;4414;42.670;23.228;2024-03-23T13:01:15;1.67;;;0.68;;
8755;SDS011;4414;42.670;23.228;2024-03-23T13:03:40;1.95;;;0.63;;
8755;SDS011;4414;42.670;23.228;2024-03-23T13:06:06;3.05;;;1.02;;
8755;SDS011;4414;42.670;23.228;2024-03-23T13:08:32;2.03;;;0.90;;
8755;SDS011;4414;42.670;23.228;2024-03-23T13:10:58;2.28;;;0.65;;
8755;SDS011;4414;42.670;23.228;2024-03-23T13:13:24;1.63;;;0.80;;
8755;SDS011;4414;42.670;23.228;2024-03-23T13:15:50;2.40;;;0.90;;
8755;SDS011;4414;42.670;23.228;2024-03-23T13:18:16;2.88;;;0.93;;
8755;SDS011;4414;42.670;23.228;2024-03-23T13:20:41;2.17;;;0.90;;
8755;SDS011;4414;42.670;23.228;2024-03-23T13:23:07;2.83;;;1.48;;
8755;SDS011;4414;42.670;23.228;2024-03-23T13:25:33;2.13;;;1.17;;
8755;SDS011;4414;42.670;23.228;2024-03-23T13:27:59;2.33;;;1.50;;
8755;SDS011;4414;42.670;23.228;2024-03-23T13:30:26;3.90;;;1.10;;
8755;SDS011;4414;42.670;23.228;2024-03-23T13:32:51;2.30;;;0.98;;
8755;SDS011;4414;42.670;23.228;2024-03-23T13:35:17;2.05;;;1.10;;
8755;SDS011;4414;42.670;23.228;2024-03-23T13:37:43;5.53;;;1.27;;
8755;SDS011;4414;42.670;23.228;2024-03-23T13:40:09;3.10;;;1.30;;
8755;SDS011;4414;42.670;23.228;2024-03-23T13:42:35;2.10;;;1.13;;
8755;SDS011;4414;42.670;23.228;2024-03-23T13:45:00;3.08;;;1.05;;
8755;SDS011;4414;42.670;23.228;2024-03-23T13:47:26;5.03;;;1.70;;
8755;SDS011;4414;42.670;23.228;2024-03-23T13:49:53;3.13;;;1.95;;
8755;SDS011;4414;42.670;23.228;2024-03-23T13:52:18;3.72;;;1.38;;
8755;SDS011;4414;42.670;23.228;2024-03-23T13:54:47;2.22;;;1.20;;
8755;SDS011;4414;42.670;23.228;2024-03-23T13:57:13;3.08;;;1.08;;
8755;SDS011;4414;42.670;23.228;2024-03-23T13:59:44;2.33;;;1.48;;
8755;SDS011;4414;42.670;23.228;2024-03-23T14:02:10;2.40;;;0.98;;
8755;SDS011;4414;42.670;23.228;2024-03-23T14:04:36;2.45;;;1.02;;
8755;SDS011;4414;42.670;23.228;2024-03-23T14:07:03;2.13;;;1.02;;
8755;SDS011;4414;42.670;23.228;2024-03-23T14:09:28;3.13;;;1.35;;
8755;SDS011;4414;42.670;23.228;2024-03-23T14:11:54;2.65;;;1.42;;
8755;SDS011;4414;42.670;23.228;2024-03-23T14:14:20;3.28;;;1.60;;
8755;SDS011;4414;42.670;23.228;2024-03-23T14:16:46;4.47;;;1.60;;
8755;SDS011;4414;42.670;23.228;2024-03-23T14:19:12;3.38;;;1.83;;
8755;SDS011;4414;42.670;23.228;2024-03-23T14:21:37;4.18;;;1.73;;
8755;SDS011;4414;42.670;23.228;2024-03-23T14:24:03;2.92;;;1.67;;
8755;SDS011;4414;42.670;23.228;2024-03-23T14:26:29;2.58;;;1.42;;
8755;SDS011;4414;42.670;23.228;2024-03-23T14:28:54;4.00;;;1.55;;
8755;SDS011;4414;42.670;23.228;2024-03-23T14:31:20;2.90;;;1.30;;
8755;SDS011;4414;42.670;23.228;2024-03-23T14:33:45;4.40;;;1.90;;
8755;SDS011;4414;42.670;23.228;2024-03-23T14:36:14;4.57;;;2.10;;
8755;SDS011;4414;42.670;23.228;2024-03-23T14:38:41;2.72;;;1.98;;
8755;SDS011;4414;42.670;23.228;2024-03-23T14:41:07;3.38;;;1.40;;
8755;SDS011;4414;42.670;23.228;2024-03-23T14:43:33;3.13;;;1.73;;
8755;SDS011;4414;42.670;23.228;2024-03-23T14:46:11;3.20;;;1.75;;
8755;SDS011;4414;42.670;23.228;2024-03-23T14:48:38;2.55;;;1.30;;
8755;SDS011;4414;42.670;23.228;2024-03-23T14:51:04;3.13;;;1.70;;
8755;SDS011;4414;42.670;23.228;2024-03-23T14:53:31;5.40;;;1.98;;
8755;SDS011;4414;42.670;23.228;2024-03-23T14:56:07;5.75;;;2.40;;
8755;SDS011;4414;42.670;23.228;2024-03-23T14:58:36;4.32;;;2.17;;
8755;SDS011;4414;42.670;23.228;2024-03-23T15:01:02;5.07;;;1.88;;
8755;SDS011;4414;42.670;23.228;2024-03-23T15:03:29;5.43;;;2.72;;
8755;SDS011;4414;42.670;23.228;2024-03-23T15:05:55;4.32;;;2.03;;
8755;SDS011;4414;42.670;23.228;2024-03-23T15:08:21;4.78;;;2.60;;
8755;SDS011;4414;42.670;23.228;2024-03-23T15:10:47;5.38;;;2.05;;
8755;SDS011;4414;42.670;23.228;2024-03-23T15:13:13;5.65;;;2.50;;
8755;SDS011;4414;42.670;23.228;2024-03-23T15:15:40;4.25;;;1.77;;
8755;SDS011;4414;42.670;23.228;2024-03-23T15:18:14;6.80;;;1.88;;
8755;SDS011;4414;42.670;23.228;2024-03-23T15:20:40;3.22;;;1.83;;
8755;SDS011;4414;42.670;23.228;2024-03-23T15:23:07;4.43;;;2.05;;
8755;SDS011;4414;42.670;23.228;2024-03-23T15:25:33;2.92;;;1.90;;
8755;SDS011;4414;42.670;23.228;2024-03-23T15:27:58;2.75;;;1.75;;
8755;SDS011;4414;42.670;23.228;2024-03-23T15:30:25;4.60;;;1.95;;
8755;SDS011;4414;42.670;23.228;2024-03-23T15:32:51;2.88;;;1.75;;
8755;SDS011;4414;42.670;23.228;2024-03-23T15:35:17;5.55;;;1.85;;
8755;SDS011;4414;42.670;23.228;2024-03-23T15:37:43;5.25;;;2.03;;
8755;SDS011;4414;42.670;23.228;2024-03-23T15:40:09;5.72;;;1.85;;
8755;SDS011;4414;42.670;23.228;2024-03-23T15:42:36;4.25;;;1.85;;
8755;SDS011;4414;42.670;23.228;2024-03-23T15:45:02;2.92;;;2.10;;
8755;SDS011;4414;42.670;23.228;2024-03-23T15:47:28;4.97;;;2.10;;
8755;SDS011;4414;42.670;23.228;2024-03-23T15:49:54;3.00;;;1.90;;
8755;SDS011;4414;42.670;23.228;2024-03-23T15:52:20;3.10;;;1.85;;
8755;SDS011;4414;42.670;23.228;2024-03-23T15:54:46;2.38;;;1.58;;